sensor_id;sensor_type;location;lat;lon;timestamp;P1;durP1;ratioP1;P2;durP2;ratioP2
39404;SDS011;25121;51.090;17.038;2023-05-19T00:00:36;11.68;;;5.20;;
39404;SDS011;25121;51.090;17.038;2023-05-19T00:02:00;11.95;;;5.30;;
39404;SDS011;25121;51.090;17.038;2023-05-19T00:03:25;13.95;;;5.20;;
39404;SDS011;25121;51.090;17.038;2023-05-19T00:04:48;11.90;;;5.53;;
39404;SDS011;25121;51.090;17.038;2023-05-19T00:06:11;9.88;;;5.47;;
39404;SDS011;25121;51.090;17.038;2023-05-19T00:09:00;10.40;;;5.13;;
39404;SDS011;25121;51.090;17.038;2023-05-19T00:10:23;12.63;;;6.53;;
39404;SDS011;25121;51.090;17.038;2023-05-19T00:11:50;9.10;;;5.32;;
39404;SDS011;25121;51.090;17.038;2023-05-19T00:13:19;11.45;;;5.88;;
39404;SDS011;25121;51.090;17.038;2023-05-19T00:14:42;8.90;;;5.80;;
39404;SDS011;25121;51.090;17.038;2023-05-19T00:16:04;11.68;;;5.50;;
39404;SDS011;25121;51.090;17.038;2023-05-19T00:17:29;10.25;;;5.22;;
39404;SDS011;25121;51.090;17.038;2023-05-19T00:18:53;9.75;;;5.75;;
39404;SDS011;25121;51.090;17.038;2023-05-19T00:20:19;14.35;;;7.18;;
39404;SDS011;25121;51.090;17.038;2023-05-19T00:21:45;19.55;;;6.55;;
39404;SDS011;25121;51.090;17.038;2023-05-19T00:23:06;11.13;;;5.38;;
39404;SDS011;25121;51.090;17.038;2023-05-19T00:24:28;12.50;;;5.78;;
39404;SDS011;25121;51.090;17.038;2023-05-19T00:25:50;9.52;;;4.68;;
39404;SDS011;25121;51.090;17.038;2023-05-19T00:27:13;14.23;;;5.85;;
39404;SDS011;25121;51.090;17.038;2023-05-19T00:28:36;10.25;;;5.47;;
39404;SDS011;25121;51.090;17.038;2023-05-19T00:31:19;11.55;;;5.53;;
39404;SDS011;25121;51.090;17.038;2023-05-19T00:32:44;9.95;;;5.60;;
39404;SDS011;25121;51.090;17.038;2023-05-19T00:34:07;10.80;;;5.43;;
39404;SDS011;25121;51.090;17.038;2023-05-19T00:35:29;14.55;;;5.72;;
39404;SDS011;25121;51.090;17.038;2023-05-19T00:36:50;10.05;;;5.20;;
39404;SDS011;25121;51.090;17.038;2023-05-19T00:38:13;15.75;;;6.43;;
39404;SDS011;25121;51.090;17.038;2023-05-19T00:39:35;9.90;;;5.75;;
39404;SDS011;25121;51.090;17.038;2023-05-19T00:40:58;10.38;;;5.53;;
39404;SDS011;25121;51.090;17.038;2023-05-19T00:42:19;8.38;;;5.22;;
39404;SDS011;25121;51.090;17.038;2023-05-19T00:43:42;9.98;;;5.45;;
39404;SDS011;25121;51.090;17.038;2023-05-19T00:45:04;8.52;;;5.13;;
39404;SDS011;25121;51.090;17.038;2023-05-19T00:46:27;9.25;;;5.50;;
39404;SDS011;25121;51.090;17.038;2023-05-19T00:47:51;9.88;;;5.43;;
39404;SDS011;25121;51.090;17.038;2023-05-19T00:49:12;8.95;;;5.38;;
39404;SDS011;25121;51.090;17.038;2023-05-19T00:50:35;12.00;;;5.75;;
39404;SDS011;25121;51.090;17.038;2023-05-19T00:51:56;11.48;;;5.57;;
39404;SDS011;25121;51.090;17.038;2023-05-19T00:53:20;9.23;;;5.45;;
39404;SDS011;25121;51.090;17.038;2023-05-19T00:54:44;10.32;;;5.15;;
39404;SDS011;25121;51.090;17.038;2023-05-19T00:56:06;13.95;;;6.07;;
39404;SDS011;25121;51.090;17.038;2023-05-19T00:57:28;10.75;;;5.57;;
39404;SDS011;25121;51.090;17.038;2023-05-19T00:58:50;15.02;;;5.38;;
39404;SDS011;25121;51.090;17.038;2023-05-19T01:00:12;8.85;;;5.25;;
39404;SDS011;25121;51.090;17.038;2023-05-19T01:01:35;8.18;;;5.47;;
39404;SDS011;25121;51.090;17.038;2023-05-19T01:02:59;9.18;;;4.88;;
39404;SDS011;25121;51.090;17.038;2023-05-19T01:04:21;11.77;;;5.45;;
39404;SDS011;25121;51.090;17.038;2023-05-19T01:05:44;13.25;;;5.07;;
39404;SDS011;25121;51.090;17.038;2023-05-19T01:07:06;10.02;;;5.38;;
39404;SDS011;25121;51.090;17.038;2023-05-19T01:08:30;8.05;;;5.28;;
39404;SDS011;25121;51.090;17.038;2023-05-19T01:09:51;13.43;;;5.97;;
39404;SDS011;25121;51.090;17.038;2023-05-19T01:11:14;12.68;;;5.43;;
39404;SDS011;25121;51.090;17.038;2023-05-19T01:12:36;14.13;;;6.15;;
39404;SDS011;25121;51.090;17.038;2023-05-19T01:13:57;10.75;;;5.40;;
39404;SDS011;25121;51.090;17.038;2023-05-19T01:15:20;12.80;;;5.85;;
39404;SDS011;25121;51.090;17.038;2023-05-19T01:16:42;13.30;;;5.55;;
39404;SDS011;25121;51.090;17.038;2023-05-19T01:18:11;18.05;;;6.00;;
39404;SDS011;25121;51.090;17.038;2023-05-19T01:19:40;10.00;;;5.30;;
39404;SDS011;25121;51.090;17.038;2023-05-19T01:21:24;10.13;;;5.20;;
39404;SDS011;25121;51.090;17.038;2023-05-19T01:23:04;8.82;;;5.60;;
39404;SDS011;25121;51.090;17.038;2023-05-19T01:26:56;11.00;;;5.68;;
39404;SDS011;25121;51.090;17.038;2023-05-19T01:28:47;13.65;;;5.50;;
39404;SDS011;25121;51.090;17.038;2023-05-19T01:30:27;10.25;;;5.20;;
39404;SDS011;25121;51.090;17.038;2023-05-19T01:31:51;10.23;;;5.97;;
39404;SDS011;25121;51.090;17.038;2023-05-19T01:33:16;8.82;;;5.47;;
39404;SDS011;25121;51.090;17.038;2023-05-19T01:34:41;15.52;;;5.43;;
39404;SDS011;25121;51.090;17.038;2023-05-19T01:36:05;12.88;;;6.57;;
39404;SDS011;25121;51.090;17.038;2023-05-19T01:37:29;10.88;;;6.25;;
39404;SDS011;25121;51.090;17.038;2023-05-19T01:38:52;13.43;;;6.35;;
39404;SDS011;25121;51.090;17.038;2023-05-19T01:40:17;8.98;;;5.30;;
39404;SDS011;25121;51.090;17.038;2023-05-19T01:41:39;9.63;;;5.95;;
39404;SDS011;25121;51.090;17.038;2023-05-19T01:43:02;7.85;;;5.65;;
39404;SDS011;25121;51.090;17.038;2023-05-19T01:44:24;13.88;;;6.07;;
39404;SDS011;25121;51.090;17.038;2023-05-19T01:45:48;11.50;;;6.10;;
39404;SDS011;25121;51.090;17.038;2023-05-19T01:47:12;11.77;;;5.82;;
39404;SDS011;25121;51.090;17.038;2023-05-19T01:48:35;13.27;;;6.03;;
39404;SDS011;25121;51.090;17.038;2023-05-19T01:51:20;9.43;;;5.18;;
39404;SDS011;25121;51.090;17.038;2023-05-19T01:52:42;12.25;;;5.80;;
39404;SDS011;25121;51.090;17.038;2023-05-19T01:54:03;12.32;;;6.03;;
39404;SDS011;25121;51.090;17.038;2023-05-19T01:55:25;13.13;;;5.95;;
39404;SDS011;25121;51.090;17.038;2023-05-19T01:56:49;10.32;;;6.25;;
39404;SDS011;25121;51.090;17.038;2023-05-19T01:58:17;12.90;;;5.93;;
39404;SDS011;25121;51.090;17.038;2023-05-19T01:59:46;11.07;;;5.90;;
39404;SDS011;25121;51.090;17.038;2023-05-19T02:01:19;10.50;;;6.63;;
39404;SDS011;25121;51.090;17.038;2023-05-19T02:02:52;11.25;;;5.78;;
39404;SDS011;25121;51.090;17.038;2023-05-19T02:04:22;12.68;;;5.68;;
39404;SDS011;25121;51.090;17.038;2023-05-19T02:05:51;10.57;;;5.70;;
39404;SDS011;25121;51.090;17.038;2023-05-19T02:07:20;11.93;;;5.70;;
39404;SDS011;25121;51.090;17.038;2023-05-19T02:08:56;12.13;;;6.15;;
39404;SDS011;25121;51.090;17.038;2023-05-19T02:10:21;11.00;;;5.78;;
39404;SDS011;25121;51.090;17.038;2023-05-19T02:11:53;11.63;;;6.30;;
39404;SDS011;25121;51.090;17.038;2023-05-19T02:13:15;13.45;;;5.97;;
39404;SDS011;25121;51.090;17.038;2023-05-19T02:14:47;10.43;;;6.47;;
39404;SDS011;25121;51.090;17.038;2023-05-19T02:16:14;12.82;;;5.63;;
39404;SDS011;25121;51.090;17.038;2023-05-19T02:17:40;9.10;;;5.43;;
39404;SDS011;25121;51.090;17.038;2023-05-19T02:19:14;10.68;;;6.00;;
39404;SDS011;25121;51.090;17.038;2023-05-19T02:20:42;8.52;;;5.50;;
39404;SDS011;25121;51.090;17.038;2023-05-19T02:22:04;10.07;;;5.72;;
39404;SDS011;25121;51.090;17.038;2023-05-19T02:23:27;15.00;;;7.25;;
39404;SDS011;25121;51.090;17.038;2023-05-19T02:24:50;9.50;;;6.35;;
39404;SDS011;25121;51.090;17.038;2023-05-19T02:26:11;11.90;;;5.88;;
39404;SDS011;25121;51.090;17.038;2023-05-19T02:27:36;12.15;;;6.70;;
39404;SDS011;25121;51.090;17.038;2023-05-19T02:28:59;9.77;;;6.00;;
39404;SDS011;25121;51.090;17.038;2023-05-19T02:30:21;10.80;;;6.05;;
39404;SDS011;25121;51.090;17.038;2023-05-19T02:31:43;10.02;;;5.45;;
39404;SDS011;25121;51.090;17.038;2023-05-19T02:33:07;11.63;;;6.15;;
39404;SDS011;25121;51.090;17.038;2023-05-19T02:34:30;16.83;;;7.00;;
39404;SDS011;25121;51.090;17.038;2023-05-19T02:35:53;10.38;;;5.78;;
39404;SDS011;25121;51.090;17.038;2023-05-19T02:37:15;13.07;;;6.28;;
39404;SDS011;25121;51.090;17.038;2023-05-19T02:38:38;10.68;;;6.05;;
39404;SDS011;25121;51.090;17.038;2023-05-19T02:40:00;12.00;;;6.20;;
39404;SDS011;25121;51.090;17.038;2023-05-19T02:41:22;15.60;;;6.53;;
39404;SDS011;25121;51.090;17.038;2023-05-19T02:42:44;14.55;;;6.10;;
39404;SDS011;25121;51.090;17.038;2023-05-19T02:44:06;10.75;;;6.75;;
39404;SDS011;25121;51.090;17.038;2023-05-19T02:45:29;13.95;;;6.07;;
39404;SDS011;25121;51.090;17.038;2023-05-19T02:46:51;13.20;;;5.90;;
39404;SDS011;25121;51.090;17.038;2023-05-19T02:48:14;13.27;;;6.00;;
39404;SDS011;25121;51.090;17.038;2023-05-19T02:49:36;10.57;;;6.20;;
39404;SDS011;25121;51.090;17.038;2023-05-19T02:50:57;9.70;;;6.05;;
39404;SDS011;25121;51.090;17.038;2023-05-19T02:53:40;8.82;;;6.07;;
39404;SDS011;25121;51.090;17.038;2023-05-19T02:55:03;13.68;;;5.80;;
39404;SDS011;25121;51.090;17.038;2023-05-19T02:56:25;11.93;;;5.82;;
39404;SDS011;25121;51.090;17.038;2023-05-19T02:57:47;10.18;;;5.47;;
39404;SDS011;25121;51.090;17.038;2023-05-19T02:59:12;9.27;;;6.18;;
39404;SDS011;25121;51.090;17.038;2023-05-19T03:00:33;10.80;;;6.03;;
39404;SDS011;25121;51.090;17.038;2023-05-19T03:01:59;12.80;;;5.38;;
39404;SDS011;25121;51.090;17.038;2023-05-19T03:03:22;10.43;;;5.28;;
39404;SDS011;25121;51.090;17.038;2023-05-19T03:04:45;11.88;;;6.38;;
39404;SDS011;25121;51.090;17.038;2023-05-19T03:06:06;12.80;;;5.97;;
39404;SDS011;25121;51.090;17.038;2023-05-19T03:07:29;11.07;;;6.13;;
39404;SDS011;25121;51.090;17.038;2023-05-19T03:08:50;11.20;;;5.78;;
39404;SDS011;25121;51.090;17.038;2023-05-19T03:10:15;10.82;;;5.72;;
39404;SDS011;25121;51.090;17.038;2023-05-19T03:13:26;15.55;;;5.90;;
39404;SDS011;25121;51.090;17.038;2023-05-19T03:14:48;12.43;;;6.10;;
39404;SDS011;25121;51.090;17.038;2023-05-19T03:16:12;12.25;;;5.97;;
39404;SDS011;25121;51.090;17.038;2023-05-19T03:17:34;12.43;;;6.40;;
39404;SDS011;25121;51.090;17.038;2023-05-19T03:18:57;14.10;;;5.90;;
39404;SDS011;25121;51.090;17.038;2023-05-19T03:20:20;10.75;;;5.32;;
39404;SDS011;25121;51.090;17.038;2023-05-19T03:21:42;11.73;;;5.70;;
39404;SDS011;25121;51.090;17.038;2023-05-19T03:23:10;13.00;;;6.55;;
39404;SDS011;25121;51.090;17.038;2023-05-19T03:24:33;11.55;;;5.60;;
39404;SDS011;25121;51.090;17.038;2023-05-19T03:25:54;8.80;;;5.40;;
39404;SDS011;25121;51.090;17.038;2023-05-19T03:27:17;11.43;;;6.45;;
39404;SDS011;25121;51.090;17.038;2023-05-19T03:28:44;10.30;;;5.47;;
39404;SDS011;25121;51.090;17.038;2023-05-19T03:30:10;11.95;;;6.30;;
39404;SDS011;25121;51.090;17.038;2023-05-19T03:31:45;10.93;;;6.05;;
39404;SDS011;25121;51.090;17.038;2023-05-19T03:33:14;12.60;;;6.78;;
39404;SDS011;25121;51.090;17.038;2023-05-19T03:34:41;10.15;;;6.60;;
39404;SDS011;25121;51.090;17.038;2023-05-19T03:36:02;8.95;;;6.45;;
39404;SDS011;25121;51.090;17.038;2023-05-19T03:37:30;8.98;;;6.07;;
39404;SDS011;25121;51.090;17.038;2023-05-19T03:38:52;12.88;;;5.93;;
39404;SDS011;25121;51.090;17.038;2023-05-19T03:40:23;14.20;;;5.95;;
39404;SDS011;25121;51.090;17.038;2023-05-19T03:43:18;9.93;;;6.40;;
39404;SDS011;25121;51.090;17.038;2023-05-19T03:44:45;11.63;;;6.63;;
39404;SDS011;25121;51.090;17.038;2023-05-19T03:46:08;12.32;;;6.15;;
39404;SDS011;25121;51.090;17.038;2023-05-19T03:47:47;15.13;;;6.13;;
39404;SDS011;25121;51.090;17.038;2023-05-19T03:49:28;15.13;;;6.70;;
39404;SDS011;25121;51.090;17.038;2023-05-19T03:51:31;11.52;;;6.53;;
39404;SDS011;25121;51.090;17.038;2023-05-19T03:53:14;14.05;;;6.63;;
39404;SDS011;25121;51.090;17.038;2023-05-19T03:54:37;10.68;;;6.13;;
39404;SDS011;25121;51.090;17.038;2023-05-19T03:57:21;13.48;;;6.65;;
39404;SDS011;25121;51.090;17.038;2023-05-19T03:58:43;11.30;;;6.00;;
39404;SDS011;25121;51.090;17.038;2023-05-19T04:00:07;11.48;;;6.68;;
39404;SDS011;25121;51.090;17.038;2023-05-19T04:01:31;15.25;;;6.38;;
39404;SDS011;25121;51.090;17.038;2023-05-19T04:02:52;11.20;;;5.78;;
39404;SDS011;25121;51.090;17.038;2023-05-19T04:04:15;11.88;;;7.40;;
39404;SDS011;25121;51.090;17.038;2023-05-19T04:05:38;12.63;;;6.63;;
39404;SDS011;25121;51.090;17.038;2023-05-19T04:07:00;14.53;;;6.77;;
39404;SDS011;25121;51.090;17.038;2023-05-19T04:08:22;15.00;;;7.80;;
39404;SDS011;25121;51.090;17.038;2023-05-19T04:09:56;10.07;;;6.25;;
39404;SDS011;25121;51.090;17.038;2023-05-19T04:11:23;11.40;;;6.82;;
39404;SDS011;25121;51.090;17.038;2023-05-19T04:12:46;13.48;;;7.00;;
39404;SDS011;25121;51.090;17.038;2023-05-19T04:14:08;13.15;;;7.32;;
39404;SDS011;25121;51.090;17.038;2023-05-19T04:15:31;13.43;;;7.00;;
39404;SDS011;25121;51.090;17.038;2023-05-19T04:16:53;14.80;;;7.10;;
39404;SDS011;25121;51.090;17.038;2023-05-19T04:18:15;13.30;;;7.28;;
39404;SDS011;25121;51.090;17.038;2023-05-19T04:19:37;15.95;;;6.70;;
39404;SDS011;25121;51.090;17.038;2023-05-19T04:20:59;14.45;;;7.35;;
39404;SDS011;25121;51.090;17.038;2023-05-19T04:22:22;11.18;;;6.95;;
39404;SDS011;25121;51.090;17.038;2023-05-19T04:23:44;11.68;;;7.25;;
39404;SDS011;25121;51.090;17.038;2023-05-19T04:25:07;13.48;;;7.20;;
39404;SDS011;25121;51.090;17.038;2023-05-19T04:26:30;13.95;;;7.55;;
39404;SDS011;25121;51.090;17.038;2023-05-19T04:27:54;12.63;;;6.43;;
39404;SDS011;25121;51.090;17.038;2023-05-19T04:29:17;19.05;;;6.95;;
39404;SDS011;25121;51.090;17.038;2023-05-19T04:30:39;13.25;;;6.68;;
39404;SDS011;25121;51.090;17.038;2023-05-19T04:33:26;11.68;;;7.00;;
39404;SDS011;25121;51.090;17.038;2023-05-19T04:34:49;11.80;;;6.68;;
39404;SDS011;25121;51.090;17.038;2023-05-19T04:36:15;12.02;;;6.70;;
39404;SDS011;25121;51.090;17.038;2023-05-19T04:37:44;15.50;;;7.38;;
39404;SDS011;25121;51.090;17.038;2023-05-19T04:39:07;15.63;;;6.88;;
39404;SDS011;25121;51.090;17.038;2023-05-19T04:40:34;11.27;;;6.57;;
39404;SDS011;25121;51.090;17.038;2023-05-19T04:41:56;10.52;;;6.13;;
39404;SDS011;25121;51.090;17.038;2023-05-19T04:43:18;13.23;;;6.93;;
39404;SDS011;25121;51.090;17.038;2023-05-19T04:44:42;9.77;;;6.60;;
39404;SDS011;25121;51.090;17.038;2023-05-19T04:46:10;11.43;;;6.38;;
39404;SDS011;25121;51.090;17.038;2023-05-19T04:47:35;15.05;;;6.63;;
39404;SDS011;25121;51.090;17.038;2023-05-19T04:49:00;9.82;;;6.40;;
39404;SDS011;25121;51.090;17.038;2023-05-19T04:50:26;11.10;;;6.45;;
39404;SDS011;25121;51.090;17.038;2023-05-19T04:51:50;13.45;;;6.85;;
39404;SDS011;25121;51.090;17.038;2023-05-19T04:53:19;11.48;;;5.78;;
39404;SDS011;25121;51.090;17.038;2023-05-19T04:54:42;9.25;;;6.32;;
39404;SDS011;25121;51.090;17.038;2023-05-19T04:56:06;10.18;;;6.00;;
39404;SDS011;25121;51.090;17.038;2023-05-19T04:57:28;9.77;;;6.38;;
39404;SDS011;25121;51.090;17.038;2023-05-19T04:58:51;12.52;;;6.20;;
39404;SDS011;25121;51.090;17.038;2023-05-19T05:00:14;16.77;;;5.85;;
39404;SDS011;25121;51.090;17.038;2023-05-19T05:01:57;11.45;;;6.03;;
39404;SDS011;25121;51.090;17.038;2023-05-19T05:03:22;10.18;;;5.55;;
39404;SDS011;25121;51.090;17.038;2023-05-19T05:04:44;9.00;;;5.15;;
39404;SDS011;25121;51.090;17.038;2023-05-19T05:06:08;9.02;;;5.78;;
39404;SDS011;25121;51.090;17.038;2023-05-19T05:07:30;13.13;;;6.10;;
39404;SDS011;25121;51.090;17.038;2023-05-19T05:08:54;10.80;;;5.63;;
39404;SDS011;25121;51.090;17.038;2023-05-19T05:10:17;9.40;;;4.88;;
39404;SDS011;25121;51.090;17.038;2023-05-19T05:11:40;9.43;;;5.82;;
39404;SDS011;25121;51.090;17.038;2023-05-19T05:13:03;10.55;;;4.97;;
39404;SDS011;25121;51.090;17.038;2023-05-19T05:14:26;10.73;;;5.65;;
39404;SDS011;25121;51.090;17.038;2023-05-19T05:15:49;8.15;;;5.30;;
39404;SDS011;25121;51.090;17.038;2023-05-19T05:17:12;7.68;;;4.95;;
39404;SDS011;25121;51.090;17.038;2023-05-19T05:18:35;9.95;;;5.00;;
39404;SDS011;25121;51.090;17.038;2023-05-19T05:19:58;8.07;;;4.45;;
39404;SDS011;25121;51.090;17.038;2023-05-19T05:21:21;8.88;;;5.00;;
39404;SDS011;25121;51.090;17.038;2023-05-19T05:22:44;6.57;;;4.78;;
39404;SDS011;25121;51.090;17.038;2023-05-19T05:24:08;9.57;;;4.80;;
39404;SDS011;25121;51.090;17.038;2023-05-19T05:25:34;10.10;;;5.72;;
39404;SDS011;25121;51.090;17.038;2023-05-19T05:26:56;8.18;;;5.13;;
39404;SDS011;25121;51.090;17.038;2023-05-19T05:28:20;6.70;;;4.82;;
39404;SDS011;25121;51.090;17.038;2023-05-19T05:29:45;11.52;;;4.78;;
39404;SDS011;25121;51.090;17.038;2023-05-19T05:31:07;12.88;;;5.05;;
39404;SDS011;25121;51.090;17.038;2023-05-19T05:32:32;7.88;;;4.65;;
39404;SDS011;25121;51.090;17.038;2023-05-19T05:34:04;8.50;;;4.57;;
39404;SDS011;25121;51.090;17.038;2023-05-19T05:35:27;9.48;;;4.60;;
39404;SDS011;25121;51.090;17.038;2023-05-19T05:36:50;10.45;;;5.20;;
39404;SDS011;25121;51.090;17.038;2023-05-19T05:38:13;7.88;;;4.55;;
39404;SDS011;25121;51.090;17.038;2023-05-19T05:39:37;10.60;;;4.78;;
39404;SDS011;25121;51.090;17.038;2023-05-19T05:40:59;11.88;;;5.05;;
39404;SDS011;25121;51.090;17.038;2023-05-19T05:42:25;7.72;;;5.00;;
39404;SDS011;25121;51.090;17.038;2023-05-19T05:43:49;13.15;;;5.57;;
39404;SDS011;25121;51.090;17.038;2023-05-19T05:45:11;9.35;;;4.65;;
39404;SDS011;25121;51.090;17.038;2023-05-19T05:46:33;12.13;;;5.28;;
39404;SDS011;25121;51.090;17.038;2023-05-19T05:47:58;7.20;;;5.22;;
39404;SDS011;25121;51.090;17.038;2023-05-19T05:49:22;10.35;;;5.20;;
39404;SDS011;25121;51.090;17.038;2023-05-19T05:50:47;9.50;;;5.13;;
39404;SDS011;25121;51.090;17.038;2023-05-19T05:52:15;7.72;;;4.78;;
39404;SDS011;25121;51.090;17.038;2023-05-19T05:53:44;11.30;;;5.22;;
39404;SDS011;25121;51.090;17.038;2023-05-19T05:55:15;10.68;;;5.72;;
39404;SDS011;25121;51.090;17.038;2023-05-19T05:56:39;11.65;;;5.97;;
39404;SDS011;25121;51.090;17.038;2023-05-19T05:58:03;12.05;;;5.32;;
39404;SDS011;25121;51.090;17.038;2023-05-19T05:59:26;13.43;;;5.38;;
39404;SDS011;25121;51.090;17.038;2023-05-19T06:00:48;10.82;;;4.65;;
39404;SDS011;25121;51.090;17.038;2023-05-19T06:03:33;10.25;;;5.40;;
39404;SDS011;25121;51.090;17.038;2023-05-19T06:04:59;11.40;;;5.63;;
39404;SDS011;25121;51.090;17.038;2023-05-19T06:06:21;10.05;;;5.55;;
39404;SDS011;25121;51.090;17.038;2023-05-19T06:07:44;8.77;;;5.13;;
39404;SDS011;25121;51.090;17.038;2023-05-19T06:09:18;10.50;;;5.32;;
39404;SDS011;25121;51.090;17.038;2023-05-19T06:10:44;9.60;;;5.32;;
39404;SDS011;25121;51.090;17.038;2023-05-19T06:12:09;14.02;;;5.82;;
39404;SDS011;25121;51.090;17.038;2023-05-19T06:13:37;11.02;;;5.32;;
39404;SDS011;25121;51.090;17.038;2023-05-19T06:15:10;14.85;;;5.10;;
39404;SDS011;25121;51.090;17.038;2023-05-19T06:16:48;12.48;;;5.60;;
39404;SDS011;25121;51.090;17.038;2023-05-19T06:18:10;15.93;;;6.35;;
39404;SDS011;25121;51.090;17.038;2023-05-19T06:19:33;13.75;;;6.20;;
39404;SDS011;25121;51.090;17.038;2023-05-19T06:20:55;11.98;;;5.88;;
39404;SDS011;25121;51.090;17.038;2023-05-19T06:22:17;9.98;;;6.00;;
39404;SDS011;25121;51.090;17.038;2023-05-19T06:23:38;9.88;;;5.43;;
39404;SDS011;25121;51.090;17.038;2023-05-19T06:25:03;11.77;;;6.03;;
39404;SDS011;25121;51.090;17.038;2023-05-19T06:26:27;12.10;;;6.30;;
39404;SDS011;25121;51.090;17.038;2023-05-19T06:27:51;9.98;;;5.70;;
39404;SDS011;25121;51.090;17.038;2023-05-19T06:29:15;7.88;;;5.43;;
39404;SDS011;25121;51.090;17.038;2023-05-19T06:30:41;11.45;;;5.90;;
39404;SDS011;25121;51.090;17.038;2023-05-19T06:32:13;13.38;;;5.30;;
39404;SDS011;25121;51.090;17.038;2023-05-19T06:33:36;9.18;;;6.07;;
39404;SDS011;25121;51.090;17.038;2023-05-19T06:34:58;9.35;;;5.72;;
39404;SDS011;25121;51.090;17.038;2023-05-19T06:36:20;10.13;;;6.22;;
39404;SDS011;25121;51.090;17.038;2023-05-19T06:37:45;9.60;;;6.32;;
39404;SDS011;25121;51.090;17.038;2023-05-19T06:39:07;13.38;;;6.53;;
39404;SDS011;25121;51.090;17.038;2023-05-19T06:40:30;13.55;;;6.65;;
39404;SDS011;25121;51.090;17.038;2023-05-19T06:41:57;10.70;;;6.53;;
39404;SDS011;25121;51.090;17.038;2023-05-19T06:45:15;9.40;;;6.07;;
39404;SDS011;25121;51.090;17.038;2023-05-19T06:46:43;14.13;;;6.32;;
39404;SDS011;25121;51.090;17.038;2023-05-19T06:48:07;9.68;;;6.05;;
39404;SDS011;25121;51.090;17.038;2023-05-19T06:49:30;11.15;;;6.20;;
39404;SDS011;25121;51.090;17.038;2023-05-19T06:50:54;12.07;;;6.18;;
39404;SDS011;25121;51.090;17.038;2023-05-19T06:52:17;13.40;;;6.68;;
39404;SDS011;25121;51.090;17.038;2023-05-19T06:53:39;10.88;;;6.72;;
39404;SDS011;25121;51.090;17.038;2023-05-19T06:55:02;9.82;;;6.00;;
39404;SDS011;25121;51.090;17.038;2023-05-19T06:56:24;8.20;;;5.97;;
39404;SDS011;25121;51.090;17.038;2023-05-19T06:57:49;11.48;;;6.10;;
39404;SDS011;25121;51.090;17.038;2023-05-19T06:59:12;11.68;;;5.57;;
39404;SDS011;25121;51.090;17.038;2023-05-19T07:00:36;11.38;;;5.85;;
39404;SDS011;25121;51.090;17.038;2023-05-19T07:02:01;10.38;;;6.13;;
39404;SDS011;25121;51.090;17.038;2023-05-19T07:03:25;12.30;;;6.25;;
39404;SDS011;25121;51.090;17.038;2023-05-19T07:04:47;19.13;;;6.28;;
39404;SDS011;25121;51.090;17.038;2023-05-19T07:06:14;11.88;;;6.45;;
39404;SDS011;25121;51.090;17.038;2023-05-19T07:07:37;14.15;;;5.70;;
39404;SDS011;25121;51.090;17.038;2023-05-19T07:09:04;13.68;;;5.57;;
39404;SDS011;25121;51.090;17.038;2023-05-19T07:10:30;11.65;;;5.93;;
39404;SDS011;25121;51.090;17.038;2023-05-19T07:11:53;15.63;;;5.88;;
39404;SDS011;25121;51.090;17.038;2023-05-19T07:13:17;10.60;;;5.63;;
39404;SDS011;25121;51.090;17.038;2023-05-19T07:14:40;6.63;;;4.82;;
39404;SDS011;25121;51.090;17.038;2023-05-19T07:16:03;11.15;;;5.85;;
39404;SDS011;25121;51.090;17.038;2023-05-19T07:17:26;10.45;;;5.70;;
39404;SDS011;25121;51.090;17.038;2023-05-19T07:18:51;10.63;;;4.82;;
39404;SDS011;25121;51.090;17.038;2023-05-19T07:20:13;12.70;;;4.95;;
39404;SDS011;25121;51.090;17.038;2023-05-19T07:21:36;11.80;;;6.20;;
39404;SDS011;25121;51.090;17.038;2023-05-19T07:22:58;12.80;;;5.63;;
39404;SDS011;25121;51.090;17.038;2023-05-19T07:24:22;9.50;;;5.32;;
39404;SDS011;25121;51.090;17.038;2023-05-19T07:25:45;8.15;;;5.32;;
39404;SDS011;25121;51.090;17.038;2023-05-19T07:27:08;8.93;;;5.40;;
39404;SDS011;25121;51.090;17.038;2023-05-19T07:28:31;13.57;;;5.43;;
39404;SDS011;25121;51.090;17.038;2023-05-19T07:29:54;9.27;;;5.30;;
39404;SDS011;25121;51.090;17.038;2023-05-19T07:31:19;9.27;;;5.60;;
39404;SDS011;25121;51.090;17.038;2023-05-19T07:32:41;5.78;;;4.70;;
39404;SDS011;25121;51.090;17.038;2023-05-19T07:34:03;11.02;;;5.25;;
39404;SDS011;25121;51.090;17.038;2023-05-19T07:36:48;9.23;;;5.60;;
39404;SDS011;25121;51.090;17.038;2023-05-19T07:38:10;21.50;;;10.50;;
39404;SDS011;25121;51.090;17.038;2023-05-19T07:39:34;12.85;;;5.78;;
39404;SDS011;25121;51.090;17.038;2023-05-19T07:40:57;11.63;;;6.10;;
39404;SDS011;25121;51.090;17.038;2023-05-19T07:42:19;10.10;;;4.70;;
39404;SDS011;25121;51.090;17.038;2023-05-19T07:45:32;9.90;;;5.28;;
39404;SDS011;25121;51.090;17.038;2023-05-19T07:46:54;7.95;;;4.80;;
39404;SDS011;25121;51.090;17.038;2023-05-19T07:48:20;9.73;;;5.38;;
39404;SDS011;25121;51.090;17.038;2023-05-19T07:49:43;13.93;;;5.78;;
39404;SDS011;25121;51.090;17.038;2023-05-19T07:51:11;12.30;;;5.70;;
39404;SDS011;25121;51.090;17.038;2023-05-19T07:52:33;8.30;;;5.50;;
39404;SDS011;25121;51.090;17.038;2023-05-19T07:53:56;10.60;;;5.13;;
39404;SDS011;25121;51.090;17.038;2023-05-19T07:55:27;6.65;;;4.72;;
39404;SDS011;25121;51.090;17.038;2023-05-19T07:56:52;10.77;;;5.90;;
39404;SDS011;25121;51.090;17.038;2023-05-19T07:58:14;10.60;;;5.75;;
39404;SDS011;25121;51.090;17.038;2023-05-19T07:59:38;9.23;;;6.22;;
39404;SDS011;25121;51.090;17.038;2023-05-19T08:01:09;11.48;;;6.35;;
39404;SDS011;25121;51.090;17.038;2023-05-19T08:02:32;7.88;;;5.50;;
39404;SDS011;25121;51.090;17.038;2023-05-19T08:03:58;10.57;;;6.13;;
39404;SDS011;25121;51.090;17.038;2023-05-19T08:05:21;9.55;;;5.95;;
39404;SDS011;25121;51.090;17.038;2023-05-19T08:06:49;12.05;;;5.47;;
39404;SDS011;25121;51.090;17.038;2023-05-19T08:08:12;8.23;;;5.10;;
39404;SDS011;25121;51.090;17.038;2023-05-19T08:09:37;9.00;;;4.90;;
39404;SDS011;25121;51.090;17.038;2023-05-19T08:11:02;7.35;;;4.88;;
39404;SDS011;25121;51.090;17.038;2023-05-19T08:12:31;7.80;;;5.32;;
39404;SDS011;25121;51.090;17.038;2023-05-19T08:13:53;9.93;;;5.10;;
39404;SDS011;25121;51.090;17.038;2023-05-19T08:15:21;7.57;;;4.93;;
39404;SDS011;25121;51.090;17.038;2023-05-19T08:16:48;10.15;;;4.72;;
39404;SDS011;25121;51.090;17.038;2023-05-19T08:18:11;7.32;;;4.50;;
39404;SDS011;25121;51.090;17.038;2023-05-19T08:19:43;7.50;;;4.63;;
39404;SDS011;25121;51.090;17.038;2023-05-19T08:21:07;8.43;;;4.43;;
39404;SDS011;25121;51.090;17.038;2023-05-19T08:22:51;12.73;;;4.50;;
39404;SDS011;25121;51.090;17.038;2023-05-19T08:24:14;9.65;;;4.40;;
39404;SDS011;25121;51.090;17.038;2023-05-19T08:25:36;9.57;;;4.80;;
39404;SDS011;25121;51.090;17.038;2023-05-19T08:26:58;7.03;;;4.10;;
39404;SDS011;25121;51.090;17.038;2023-05-19T08:28:20;8.15;;;4.68;;
39404;SDS011;25121;51.090;17.038;2023-05-19T08:29:43;9.45;;;4.70;;
39404;SDS011;25121;51.090;17.038;2023-05-19T08:31:11;10.18;;;4.90;;
39404;SDS011;25121;51.090;17.038;2023-05-19T08:32:48;7.97;;;3.85;;
39404;SDS011;25121;51.090;17.038;2023-05-19T08:34:10;11.15;;;4.78;;
39404;SDS011;25121;51.090;17.038;2023-05-19T08:35:32;8.70;;;4.47;;
39404;SDS011;25121;51.090;17.038;2023-05-19T08:36:55;9.15;;;4.05;;
39404;SDS011;25121;51.090;17.038;2023-05-19T08:38:19;6.78;;;4.20;;